Time;durP1;ratioP1;P1;durP2;ratioP2;P2;SDS_P1;SDS_P2;PMS_P1;PMS_P2;Temp;Humidity;BMP_temperature;BMP_pressure;BME280_temperature;BME280_humidity;BME280_pressure;Samples;Min_cycle;Max_cycle;Signal;HPM_P1;HPM_P2
2022/11/18 00:00:28;;;;;;;6.50;2.88;;;;;;;7.98;100.00;99446.63;4989951;28;20038;-71
2022/11/18 00:02:53;;;;;;;4.03;3.17;;;;;;;7.99;100.00;99447.44;4990713;28;20054;-71
2022/11/18 00:05:19;;;;;;;9.93;3.20;;;;;;;7.97;100.00;99458.88;4990367;28;20037;-70
2022/11/18 00:07:44;;;;;;;8.65;3.47;;;;;;;7.89;100.00;99454.91;4990090;28;20030;-71
2022/11/18 00:10:09;;;;;;;4.50;3.25;;;;;;;7.91;100.00;99467.00;4989169;28;20121;-64
2022/11/18 00:15:18;;;;;;;8.80;3.08;;;;;;;7.95;100.00;99470.34;4990532;28;20603;-70
2022/11/18 00:17:44;;;;;;;8.15;3.72;;;;;;;7.94;100.00;99473.88;4990192;28;20030;-74
2022/11/18 00:20:09;;;;;;;6.80;3.08;;;;;;;7.94;100.00;99481.75;4990081;28;20035;-66
2022/11/18 00:22:34;;;;;;;6.88;3.63;;;;;;;7.95;100.00;99480.84;4989662;28;20051;-72
2022/11/18 00:25:00;;;;;;;8.35;4.25;;;;;;;7.92;100.00;99491.47;4989951;28;20042;-73
2022/11/18 00:27:29;;;;;;;5.60;3.72;;;;;;;7.90;100.00;99485.44;4989748;28;20149;-71
2022/11/18 00:29:55;;;;;;;9.15;3.50;;;;;;;7.89;100.00;99487.19;4988345;28;20358;-67
2022/11/18 00:32:20;;;;;;;6.82;3.15;;;;;;;7.89;100.00;99487.19;4988643;28;20027;-72
2022/11/18 00:34:45;;;;;;;5.38;2.92;;;;;;;7.88;100.00;99495.13;4989504;28;20039;-63
2022/11/18 00:37:11;;;;;;;4.57;2.80;;;;;;;7.94;100.00;99500.97;4989471;28;20036;-68
2022/11/18 00:39:36;;;;;;;6.43;3.20;;;;;;;7.96;100.00;99498.28;4989551;28;20018;-72
2022/11/18 00:45:05;;;;;;;5.80;3.60;;;;;;;7.88;100.00;99516.13;4928778;29;20035;-72
2022/11/18 00:47:31;;;;;;;5.88;3.28;;;;;;;7.82;100.00;99512.88;4929991;29;20384;-66
2022/11/18 00:49:56;;;;;;;6.75;3.38;;;;;;;7.76;100.00;99513.13;4957289;28;20034;-72
2022/11/18 00:52:21;;;;;;;6.63;3.72;;;;;;;7.73;100.00;99517.66;4990505;28;20027;-70
2022/11/18 00:54:47;;;;;;;4.95;3.00;;;;;;;7.72;100.00;99522.06;5008146;28;20106;-70
2022/11/18 00:57:12;;;;;;;6.43;3.33;;;;;;;7.74;100.00;99525.47;5008868;28;20105;-69
2022/11/18 00:59:37;;;;;;;6.95;3.10;;;;;;;7.67;100.00;99527.50;5009147;28;20099;-69
2022/11/18 01:02:03;;;;;;;7.75;3.65;;;;;;;7.63;100.00;99532.91;5008340;28;20072;-70
2022/11/18 01:04:28;;;;;;;7.25;3.40;;;;;;;7.61;100.00;99540.03;5009408;28;20069;-71
2022/11/18 01:06:53;;;;;;;4.88;3.35;;;;;;;7.62;100.00;99545.19;5009625;28;20037;-64
2022/11/18 01:09:19;;;;;;;6.95;3.38;;;;;;;7.54;100.00;99540.28;5008414;28;20447;-69
2022/11/18 01:14:28;;;;;;;6.82;3.70;;;;;;;7.50;100.00;99553.56;5007058;28;20060;-72
2022/11/18 01:16:55;;;;;;;5.90;3.65;;;;;;;7.52;100.00;99557.81;5008362;28;20500;-67
2022/11/18 01:19:20;;;;;;;6.65;3.75;;;;;;;7.49;100.00;99557.94;5007660;28;20029;-70
2022/11/18 01:21:45;;;;;;;9.65;4.72;;;;;;;7.46;100.00;99563.31;5008356;28;20029;-63
2022/11/18 01:24:11;;;;;;;9.60;3.75;;;;;;;7.48;100.00;99566.75;5008851;28;20057;-70
2022/11/18 01:26:36;;;;;;;7.20;4.05;;;;;;;7.46;100.00;99565.94;5008036;28;20042;-70
2022/11/18 01:29:01;;;;;;;9.23;4.43;;;;;;;7.46;100.00;99568.56;5008241;28;20026;-67
2022/11/18 01:31:27;;;;;;;8.75;4.10;;;;;;;7.48;100.00;99566.75;5007636;28;20026;-70
2022/11/18 01:33:52;;;;;;;7.50;3.90;;;;;;;7.51;100.00;99571.84;5006686;28;20104;-64
2022/11/18 01:36:20;;;;;;;9.88;4.38;;;;;;;7.47;100.00;99578.16;5008146;28;20399;-69
2022/11/18 01:38:45;;;;;;;9.32;4.25;;;;;;;7.48;100.00;99577.22;5007671;28;20463;-68
2022/11/18 01:41:11;;;;;;;10.60;4.35;;;;;;;7.46;100.00;99579.03;5008171;28;20108;-69
2022/11/18 01:44:26;;;;;;;6.30;3.90;;;;;;;7.43;100.00;99589.66;5008092;28;20105;-66
2022/11/18 01:46:51;;;;;;;9.27;4.30;;;;;;;7.40;100.00;99592.41;5004272;28;20125;-70
2022/11/18 01:49:16;;;;;;;5.78;3.88;;;;;;;7.33;100.00;99584.81;5007929;28;20448;-70
2022/11/18 01:51:53;;;;;;;10.55;4.20;;;;;;;7.33;100.00;99589.19;5006927;28;20516;-65
2022/11/18 01:54:23;;;;;;;9.88;4.75;;;;;;;7.32;100.00;99588.31;5007904;28;20026;-69
2022/11/18 01:56:51;;;;;;;9.45;4.10;;;;;;;7.30;100.00;99590.16;5008283;28;20076;-70
2022/11/18 01:59:20;;;;;;;7.45;4.53;;;;;;;7.29;100.00;99591.06;4999396;28;20641;-64
2022/11/18 02:01:45;;;;;;;9.10;4.63;;;;;;;7.32;100.00;99592.72;4986678;28;20044;-69
2022/11/18 02:04:11;;;;;;;8.85;5.15;;;;;;;7.29;100.00;99598.09;4986064;28;20063;-68
2022/11/18 02:06:37;;;;;;;8.05;5.07;;;;;;;7.33;100.00;99590.06;4970272;28;20022;-69
2022/11/18 02:09:03;;;;;;;11.25;5.68;;;;;;;7.31;100.00;99606.72;4987199;28;20506;-69
2022/11/18 02:14:13;;;;;;;11.98;5.53;;;;;;;7.29;100.00;99605.94;4987559;28;20170;-71
2022/11/18 02:16:57;;;;;;;7.22;4.78;;;;;;;7.33;100.00;99616.25;4988205;28;20118;-72
2022/11/18 02:19:34;;;;;;;9.15;5.45;;;;;;;7.33;100.00;99616.25;4993568;28;20025;-65
2022/11/18 02:22:32;;;;;;;9.48;6.25;;;;;;;7.36;100.00;99609.16;5008120;28;20026;-71
2022/11/18 02:25:35;;;;;;;9.67;5.13;;;;;;;7.33;100.00;99624.13;5007797;28;20033;-68
2022/11/18 02:28:03;;;;;;;9.35;5.78;;;;;;;7.30;100.00;99626.00;5008104;28;20480;-67
2022/11/18 02:30:31;;;;;;;8.73;5.43;;;;;;;7.31;100.00;99633.78;5006988;28;20033;-63
2022/11/18 02:33:05;;;;;;;11.73;5.47;;;;;;;7.22;100.00;99634.16;5008532;28;20030;-72
2022/11/18 02:35:34;;;;;;;11.02;4.80;;;;;;;7.17;100.00;99634.31;5006398;28;20104;-72
2022/11/18 02:38:07;;;;;;;8.57;5.20;;;;;;;7.11;100.00;99636.34;5007814;28;20092;-68
2022/11/18 02:40:36;;;;;;;5.90;5.00;;;;;;;7.07;100.00;99641.69;4996399;28;20089;-71
2022/11/18 02:43:05;;;;;;;9.52;5.32;;;;;;;7.11;100.00;99642.44;5007700;28;20061;-69
2022/11/18 02:45:30;;;;;;;8.02;5.30;;;;;;;7.05;100.00;99640.91;4995623;28;20081;-67
2022/11/18 02:47:56;;;;;;;11.35;5.97;;;;;;;7.02;100.00;99646.28;4990732;28;20022;-69
2022/11/18 02:50:24;;;;;;;9.82;5.22;;;;;;;7.03;100.00;99647.97;4996851;28;20477;-68
2022/11/18 02:52:56;;;;;;;12.80;5.97;;;;;;;7.01;100.00;99656.81;5011673;28;20032;-71
2022/11/18 02:55:23;;;;;;;10.25;6.50;;;;;;;7.01;100.00;99656.81;5000388;28;20057;-70
2022/11/18 02:57:49;;;;;;;9.88;6.32;;;;;;;7.02;100.00;99648.03;4992273;28;20528;-70
2022/11/18 03:00:15;;;;;;;9.95;6.05;;;;;;;6.98;100.00;99649.06;4989637;28;20026;-69
2022/11/18 03:02:46;;;;;;;10.13;5.85;;;;;;;6.99;100.00;99661.25;4991593;28;20078;-70
2022/11/18 03:05:26;;;;;;;13.75;6.40;;;;;;;7.01;100.00;99657.66;4992940;28;20370;-70
2022/11/18 03:07:55;;;;;;;16.42;7.20;;;;;;;7.03;100.00;99655.84;4991191;28;20562;-71
2022/11/18 03:10:22;;;;;;;7.60;5.43;;;;;;;7.05;100.00;99653.16;4992954;28;20030;-69
2022/11/18 03:13:01;;;;;;;17.80;6.30;;;;;;;7.06;100.00;99660.97;4992078;28;20034;-70
2022/11/18 03:15:48;;;;;;;12.10;6.63;;;;;;;7.04;100.00;99661.91;4991954;28;20408;-71
2022/11/18 03:18:27;;;;;;;8.75;5.97;;;;;;;7.02;100.00;99659.38;4991325;28;20385;-70
2022/11/18 03:20:57;;;;;;;15.70;7.00;;;;;;;7.04;100.00;99661.91;4991244;28;20038;-63
2022/11/18 03:23:35;;;;;;;12.30;6.47;;;;;;;7.01;100.00;99664.66;4990531;28;20034;-64
2022/11/18 03:26:11;;;;;;;11.85;6.97;;;;;;;7.03;100.00;99670.69;4991012;28;20500;-71
2022/11/18 03:28:49;;;;;;;17.25;7.78;;;;;;;7.02;100.00;99672.47;4992321;28;20081;-70
2022/11/18 03:31:37;;;;;;;23.03;7.37;;;;;;;7.01;100.00;99673.38;4972047;28;20035;-67
2022/11/18 03:34:07;;;;;;;15.02;8.15;;;;;;;7.04;100.00;99675.88;4971168;28;20019;-69
2022/11/18 03:36:35;;;;;;;13.77;6.93;;;;;;;7.08;100.00;99684.47;4973024;28;20058;-68
2022/11/18 03:39:02;;;;;;;16.27;7.05;;;;;;;7.11;100.00;99683.50;4971886;28;20537;-64
2022/11/18 03:41:31;;;;;;;15.75;8.30;;;;;;;7.13;100.00;99692.16;4971477;28;20409;-70
2022/11/18 03:44:00;;;;;;;13.30;8.43;;;;;;;7.19;100.00;99691.91;4972342;28;20118;-70
2022/11/18 03:46:27;;;;;;;;;;;;;;;7.21;100.00;99700.56;4971061;28;20110;-68
2022/11/18 03:48:54;;;;;;;15.93;7.50;;;;;;;7.25;100.00;99698.69;4970626;28;20374;-70
2022/11/18 03:51:24;;;;;;;14.65;8.15;;;;;;;7.30;100.00;99697.59;4982687;28;20104;-68
2022/11/18 03:53:56;;;;;;;18.02;9.43;;;;;;;7.35;100.00;99697.44;5010184;28;20033;-70
2022/11/18 03:56:30;;;;;;;21.75;9.52;;;;;;;7.39;100.00;99698.16;5008514;28;20026;-69
2022/11/18 03:58:55;;;;;;;17.10;8.70;;;;;;;7.42;100.00;99698.03;5007946;28;20073;-70
2022/11/18 04:01:35;;;;;;;17.23;9.68;;;;;;;7.45;100.00;99700.53;5009384;28;20436;-65
2022/11/18 04:04:00;;;;;;;21.98;8.55;;;;;;;7.46;100.00;99700.47;4992781;28;20045;-65
2022/11/18 04:06:47;;;;;;;13.35;8.30;;;;;;;7.50;100.00;99708.22;5008544;28;20033;-69
2022/11/18 04:09:23;;;;;;;17.42;8.50;;;;;;;7.50;100.00;99710.84;5009820;28;20473;-71
2022/11/18 04:12:02;;;;;;;20.23;9.57;;;;;;;7.45;100.00;99718.88;4997983;28;20140;-69
2022/11/18 04:14:29;;;;;;;16.80;8.65;;;;;;;7.41;100.00;99728.63;4988183;28;20440;-69
2022/11/18 04:16:54;;;;;;;15.15;8.23;;;;;;;7.39;100.00;99724.34;4988084;28;20116;-66
2022/11/18 04:19:20;;;;;;;15.40;8.38;;;;;;;7.36;100.00;99732.34;4990136;28;20105;-69
2022/11/18 04:21:47;;;;;;;14.73;9.07;;;;;;;7.33;100.00;99722.81;4989050;28;20031;-70
2022/11/18 04:24:12;;;;;;;14.95;7.90;;;;;;;7.27;100.00;99731.78;4990664;28;20385;-70
2022/11/18 04:26:37;;;;;;;16.05;9.00;;;;;;;7.31;100.00;99732.50;4990000;28;20022;-71
2022/11/18 04:29:03;;;;;;;16.88;8.80;;;;;;;7.26;100.00;99740.56;4990409;28;20030;-68
2022/11/18 04:31:28;;;;;;;21.17;9.50;;;;;;;7.22;100.00;99738.94;4989389;28;20030;-69
2022/11/18 04:33:54;;;;;;;14.15;8.65;;;;;;;7.25;100.00;99744.09;5001401;28;20033;-71
2022/11/18 04:36:19;;;;;;;20.67;8.48;;;;;;;7.22;100.00;99751.22;5008325;28;20057;-72
2022/11/18 04:38:44;;;;;;;15.27;8.25;;;;;;;7.21;100.00;99752.97;5009187;28;20025;-69
2022/11/18 04:41:10;;;;;;;15.18;9.13;;;;;;;7.23;100.00;99756.41;5009351;28;20507;-69
2022/11/18 04:43:35;;;;;;;20.30;8.50;;;;;;;7.23;100.00;99761.66;5008768;28;20037;-69
2022/11/18 04:46:00;;;;;;;20.95;9.73;;;;;;;7.19;100.00;99767.88;5008998;28;20056;-71
2022/11/18 04:48:26;;;;;;;23.63;10.15;;;;;;;7.22;100.00;99775.63;5008883;28;20436;-68
2022/11/18 04:50:51;;;;;;;21.40;10.02;;;;;;;7.23;100.00;99773.88;5009115;28;20559;-69
2022/11/18 04:53:16;;;;;;;26.23;9.88;;;;;;;7.22;100.00;99778.25;5008962;28;20858;-71
2022/11/18 04:55:42;;;;;;;20.55;9.98;;;;;;;7.29;100.00;99781.50;5008926;28;20022;-68
2022/11/18 04:58:07;;;;;;;21.02;9.65;;;;;;;7.33;100.00;99778.72;5008644;28;20030;-71
2022/11/18 05:00:32;;;;;;;19.48;10.18;;;;;;;7.33;100.00;99798.81;4989645;28;20061;-69
2022/11/18 05:02:58;;;;;;;22.10;10.07;;;;;;;7.35;100.00;99798.78;4988329;28;20659;-67
2022/11/18 05:05:23;;;;;;;21.67;9.75;;;;;;;7.27;100.00;99799.91;4988026;28;20057;-71
2022/11/18 05:07:49;;;;;;;23.45;9.52;;;;;;;7.25;100.00;99808.75;4988826;28;20465;-71
2022/11/18 05:10:15;;;;;;;17.42;9.32;;;;;;;7.25;100.00;99804.34;4989114;28;20030;-70
2022/11/18 05:12:49;;;;;;;23.75;10.07;;;;;;;7.21;100.00;99805.38;4989316;28;20038;-72
2022/11/18 05:15:20;;;;;;;21.33;9.18;;;;;;;7.17;100.00;99804.63;4988770;28;20018;-71
2022/11/18 05:17:45;;;;;;;17.90;9.15;;;;;;;7.21;100.00;99805.38;5000358;28;20022;-71
2022/11/18 05:20:12;;;;;;;28.25;11.05;;;;;;;7.19;100.00;99807.19;4998072;28;20022;-68
2022/11/18 05:22:38;;;;;;;25.73;10.35;;;;;;;7.17;100.00;99815.09;4988246;28;20473;-70
2022/11/18 05:25:04;;;;;;;19.63;9.20;;;;;;;7.19;100.00;99810.66;4988116;28;20029;-72
2022/11/18 05:27:29;;;;;;;23.85;10.05;;;;;;;7.20;100.00;99808.91;4988422;28;20080;-71
2022/11/18 05:29:55;;;;;;;16.20;9.15;;;;;;;7.19;100.00;99812.44;4988498;28;20457;-68
2022/11/18 05:32:20;;;;;;;17.42;9.40;;;;;;;7.18;100.00;99814.22;4986434;28;20027;-71
2022/11/18 05:34:45;;;;;;;18.63;9.05;;;;;;;7.13;100.00;99817.91;4988689;28;20075;-71
2022/11/18 05:37:11;;;;;;;19.90;9.60;;;;;;;7.18;100.00;99821.19;4988640;28;20058;-69
2022/11/18 05:39:36;;;;;;;17.02;7.90;;;;;;;7.16;100.00;99817.78;4988234;28;20010;-68
2022/11/18 05:44:46;;;;;;;16.25;8.93;;;;;;;7.08;100.00;99824.16;4988257;28;20104;-71
2022/11/18 05:47:11;;;;;;;16.75;8.43;;;;;;;7.10;100.00;99816.25;4992934;28;20456;-71
2022/11/18 05:49:36;;;;;;;17.77;9.45;;;;;;;7.08;100.00;99813.66;4991609;28;20450;-66
2022/11/18 05:52:02;;;;;;;16.73;7.60;;;;;;;7.03;100.00;99820.84;4997143;28;20408;-69
2022/11/18 05:54:27;;;;;;;14.55;8.00;;;;;;;6.99;100.00;99832.34;4989200;28;20469;-70
2022/11/18 05:56:53;;;;;;;15.90;8.50;;;;;;;7.02;100.00;99834.00;4986584;28;20509;-63
2022/11/18 05:59:18;;;;;;;21.63;8.73;;;;;;;7.03;100.00;99840.94;4985496;28;20385;-71
2022/11/18 06:01:46;;;;;;;23.45;9.52;;;;;;;7.02;100.00;99841.88;4985833;28;20038;-70
2022/11/18 06:04:26;;;;;;;23.08;8.52;;;;;;;6.99;100.00;99841.97;4986755;28;20050;-69
2022/11/18 06:06:54;;;;;;;18.60;8.95;;;;;;;6.90;100.00;99841.41;4986560;28;20038;-72
2022/11/18 06:09:23;;;;;;;21.23;8.93;;;;;;;6.90;100.00;99849.25;4988217;28;20040;-71
2022/11/18 06:11:51;;;;;;;23.38;8.70;;;;;;;6.86;100.00;99852.84;4988167;28;20026;-67
2022/11/18 06:14:21;;;;;;;13.88;8.45;;;;;;;6.83;100.00;99853.81;4987927;28;20129;-70
2022/11/18 06:16:49;;;;;;;17.15;7.78;;;;;;;6.81;100.00;99855.63;4996499;28;20109;-67
2022/11/18 06:19:15;;;;;;;14.23;7.53;;;;;;;6.86;100.00;99860.72;4996965;28;20033;-69
2022/11/18 06:21:41;;;;;;;18.95;8.77;;;;;;;6.83;100.00;99866.91;4988136;28;20388;-67
2022/11/18 06:24:08;;;;;;;15.45;8.02;;;;;;;6.80;100.00;99860.91;4992336;28;20030;-66
2022/11/18 06:26:35;;;;;;;18.25;8.30;;;;;;;6.82;100.00;99870.47;4992568;28;20109;-69
2022/11/18 06:29:00;;;;;;;14.63;8.48;;;;;;;6.86;100.00;99879.03;4991460;28;20034;-69
2022/11/18 06:31:25;;;;;;;15.43;8.18;;;;;;;6.86;100.00;99888.69;4991911;28;20038;-67
2022/11/18 06:33:51;;;;;;;20.00;7.90;;;;;;;6.82;100.00;99888.78;4991939;28;20032;-69
2022/11/18 06:36:16;;;;;;;15.63;8.05;;;;;;;6.83;100.00;99894.84;4991568;28;20026;-69
2022/11/18 06:38:41;;;;;;;20.55;8.15;;;;;;;6.82;100.00;99896.63;4991826;28;20061;-62
2022/11/18 06:41:07;;;;;;;15.20;8.50;;;;;;;6.78;100.00;99897.66;4991858;28;20058;-69
2022/11/18 06:43:38;;;;;;;17.17;7.85;;;;;;;6.76;100.00;99901.22;4990842;28;20030;-68
2022/11/18 06:48:49;;;;;;;15.98;8.15;;;;;;;6.74;100.00;99906.50;4991733;28;20033;-67
2022/11/18 06:51:15;;;;;;;16.23;7.68;;;;;;;6.76;100.00;99903.81;4991084;28;20109;-71
2022/11/18 06:53:41;;;;;;;16.67;8.25;;;;;;;6.77;100.00;99911.63;4978688;28;20420;-71
2022/11/18 06:56:08;;;;;;;19.52;8.55;;;;;;;6.75;100.00;99913.47;4991506;28;20037;-70
2022/11/18 06:58:33;;;;;;;13.50;7.93;;;;;;;6.75;100.00;99923.94;4991159;28;20438;-69
2022/11/18 07:01:12;;;;;;;14.77;8.52;;;;;;;6.83;100.00;99923.66;4990588;28;20114;-71
2022/11/18 07:03:38;;;;;;;16.53;7.80;;;;;;;6.90;100.00;99935.69;4991993;28;20040;-68
2022/11/18 07:06:04;;;;;;;22.55;9.02;;;;;;;6.93;100.00;99929.47;4990621;28;20030;-70
2022/11/18 07:08:30;;;;;;;20.88;9.30;;;;;;;6.95;100.00;99935.50;4989189;28;20072;-67
2022/11/18 07:10:55;;;;;;;22.60;9.10;;;;;;;7.00;100.00;99943.19;4990154;28;20023;-69
2022/11/18 07:13:20;;;;;;;18.02;8.85;;;;;;;7.09;100.00;99948.13;4989630;28;20125;-70
2022/11/18 07:15:46;;;;;;;18.13;8.35;;;;;;;7.13;100.00;99954.97;4988763;28;20105;-65
2022/11/18 07:18:11;;;;;;;19.13;8.20;;;;;;;7.15;100.00;99950.56;4989670;28;20069;-70
2022/11/18 07:20:36;;;;;;;16.60;7.53;;;;;;;7.18;100.00;99963.56;4990141;28;20473;-70
2022/11/18 07:23:01;;;;;;;17.38;8.52;;;;;;;7.22;100.00;99958.22;4986155;28;20473;-71
2022/11/18 07:25:27;;;;;;;25.27;8.52;;;;;;;7.25;100.00;99960.72;4981669;28;20027;-64
2022/11/18 07:27:52;;;;;;;17.92;8.73;;;;;;;7.31;100.00;99968.34;4979906;28;20078;-71
2022/11/18 07:30:17;;;;;;;20.58;8.65;;;;;;;7.33;100.00;99972.66;4979158;28;20077;-71
2022/11/18 07:32:43;;;;;;;21.65;9.45;;;;;;;7.44;100.00;99969.66;4977501;28;20485;-65
2022/11/18 07:35:08;;;;;;;21.33;9.13;;;;;;;7.46;100.00;99978.31;4970961;28;20023;-65
2022/11/18 07:37:33;;;;;;;17.52;8.63;;;;;;;7.56;100.00;99984.09;4970301;28;20027;-71
2022/11/18 07:39:59;;;;;;;19.77;9.20;;;;;;;7.57;100.00;99987.56;4970811;28;20050;-70
2022/11/18 07:42:24;;;;;;;20.58;8.48;;;;;;;7.57;100.00;99991.06;4975905;28;20372;-72
2022/11/18 07:44:50;;;;;;;22.05;9.30;;;;;;;7.67;100.00;99996.84;4987366;28;20073;-67
2022/11/18 07:47:15;;;;;;;18.65;8.63;;;;;;;7.75;100.00;100001.81;4981093;28;20046;-65
2022/11/18 07:49:40;;;;;;;19.63;9.05;;;;;;;7.82;100.00;100005.91;4980723;28;20023;-65
2022/11/18 07:52:06;;;;;;;23.92;10.10;;;;;;;7.85;100.00;100010.19;4982435;28;20030;-73
2022/11/18 07:54:31;;;;;;;18.23;9.23;;;;;;;7.94;100.00;100004.63;4979673;28;20093;-65
2022/11/18 07:56:56;;;;;;;18.88;9.77;;;;;;;7.93;100.00;100010.78;4989285;28;20030;-73
2022/11/18 07:59:22;;;;;;;20.25;8.80;;;;;;;8.08;100.00;100019.00;4988289;28;20018;-70
2022/11/18 08:01:47;;;;;;;15.23;8.40;;;;;;;8.12;100.00;100022.38;4988434;28;20105;-66
2022/11/18 08:04:12;;;;;;;24.08;8.82;;;;;;;8.25;100.00;100028.03;4987741;28;20101;-70
2022/11/18 08:06:38;;;;;;;20.08;8.73;;;;;;;8.26;100.00;100025.34;4989307;28;20018;-67
2022/11/18 08:09:04;;;;;;;16.70;8.25;;;;;;;8.29;100.00;100030.47;4993101;28;20061;-67
2022/11/18 08:11:30;;;;;;;20.90;8.13;;;;;;;8.40;100.00;100029.22;4979646;28;20026;-70
2022/11/18 08:13:55;;;;;;;17.50;8.13;;;;;;;8.41;100.00;100031.78;4975795;28;20149;-72
2022/11/18 08:16:22;;;;;;;16.25;7.25;;;;;;;8.50;100.00;100033.19;4978444;28;20082;-71
2022/11/18 08:18:48;;;;;;;27.10;8.27;;;;;;;8.53;100.00;100037.47;4986345;28;20025;-68
2022/11/18 08:21:15;;;;;;;15.65;7.68;;;;;;;8.62;100.00;100041.53;4989217;28;20113;-73
2022/11/18 08:23:40;;;;;;;18.80;8.02;;;;;;;8.64;100.00;100044.97;4990246;28;20041;-71
2022/11/18 08:26:12;;;;;;;23.23;7.70;;;;;;;8.67;100.00;100045.69;4989693;28;20018;-71
2022/11/18 08:28:37;;;;;;;15.10;6.50;;;;;;;8.77;100.00;100046.22;4988822;28;20034;-72
2022/11/18 08:31:24;;;;;;;22.10;6.80;;;;;;;8.73;100.00;100049.84;4988349;28;20400;-69
2022/11/18 08:33:57;;;;;;;13.25;5.97;;;;;;;8.83;100.00;100047.75;4992383;28;20019;-70
2022/11/18 08:36:25;;;;;;;13.95;6.30;;;;;;;8.93;100.00;100056.09;4987976;28;20069;-68
2022/11/18 08:38:50;;;;;;;19.60;6.93;;;;;;;8.92;100.00;100059.66;4989543;28;20027;-67
2022/11/18 08:41:19;;;;;;;17.33;5.90;;;;;;;8.90;100.00;100064.09;4988650;28;20101;-68
2022/11/18 08:43:44;;;;;;;20.77;6.65;;;;;;;8.96;100.00;100070.00;4987489;28;20030;-64
2022/11/18 08:46:09;;;;;;;15.07;6.20;;;;;;;9.10;100.00;100065.97;4989304;28;20031;-66
2022/11/18 08:48:35;;;;;;;10.85;5.80;;;;;;;9.18;100.00;100066.50;4989633;28;20023;-67
2022/11/18 08:51:00;;;;;;;18.02;5.32;;;;;;;9.28;100.00;100074.00;4989302;28;20023;-68
2022/11/18 08:53:26;;;;;;;23.17;6.53;;;;;;;9.34;100.00;100069.34;4985574;28;20034;-65
2022/11/18 08:55:58;;;;;;;16.52;5.45;;;;;;;9.40;100.00;100078.78;4988921;28;20450;-69
2022/11/18 08:58:24;;;;;;;11.27;5.57;;;;;;;9.44;100.00;100074.22;4986546;28;20036;-69
2022/11/18 09:00:49;;;;;;;13.07;4.88;;;;;;;9.61;100.00;100074.38;4986379;28;20022;-67
2022/11/18 09:03:15;;;;;;;10.35;5.22;;;;;;;9.68;100.00;100080.25;4987728;28;20197;-65
2022/11/18 09:05:40;;;;;;;12.88;4.63;;;;;;;9.69;100.00;100089.84;4987350;28;20035;-71
2022/11/18 09:08:05;;;;;;;9.10;4.03;;;;;;;9.85;100.00;100082.13;4987372;28;20022;-66
2022/11/18 09:10:31;;;;;;;12.98;3.88;;;;;;;9.94;100.00;100085.31;4985068;28;20041;-70
2022/11/18 09:12:56;;;;;;;12.98;4.70;;;;;;;9.98;100.00;100087.75;4987785;28;20026;-71
2022/11/18 09:15:23;;;;;;;10.48;4.13;;;;;;;9.96;100.00;100091.34;4986670;28;20031;-68
2022/11/18 09:17:48;;;;;;;14.32;4.13;;;;;;;10.08;100.00;100092.56;4984948;28;20026;-72
2022/11/18 09:20:15;;;;;;;18.88;3.92;;;;;;;10.20;100.00;100091.19;4988069;28;20026;-73
2022/11/18 09:22:41;;;;;;;14.02;4.00;;;;;;;10.27;100.00;100095.28;4970283;28;20027;-72
2022/11/18 09:25:07;;;;;;;12.00;4.18;;;;;;;10.30;100.00;100100.38;4971540;28;20113;-71
2022/11/18 09:27:32;;;;;;;20.35;5.10;;;;;;;10.43;100.00;100105.09;4986153;28;20106;-71
2022/11/18 09:29:57;;;;;;;9.27;3.30;;;;;;;10.45;100.00;100103.28;4985170;28;20022;-70
2022/11/18 09:32:23;;;;;;;9.55;3.17;;;;;;;10.51;100.00;100107.44;4982917;28;20100;-69
2022/11/18 09:34:48;;;;;;;6.70;3.60;;;;;;;10.62;100.00;100107.78;4976838;28;20023;-73
2022/11/18 09:37:13;;;;;;;9.25;3.60;;;;;;;10.70;100.00;100108.31;4980779;28;20092;-67
2022/11/18 09:39:39;;;;;;;15.48;3.58;;;;;;;10.66;100.00;100117.28;4981709;28;20497;-71
2022/11/18 09:42:25;;;;;;;7.55;2.95;;;;;;;10.81;100.00;100123.59;4974191;28;20030;-70
2022/11/18 09:45:15;;;;;;;6.28;2.97;;;;;;;10.85;100.00;100130.47;4986099;28;20476;-70
2022/11/18 09:47:40;;;;;;;8.52;3.05;;;;;;;10.89;100.00;100131.16;4985329;28;20481;-70
2022/11/18 09:50:15;;;;;;;11.65;2.88;;;;;;;10.90;100.00;100140.78;4987692;28;20033;-67
2022/11/18 09:52:47;;;;;;;12.95;3.28;;;;;;;10.97;100.00;100139.56;4978444;28;20121;-71
2022/11/18 09:55:14;;;;;;;12.02;3.65;;;;;;;11.05;100.00;100141.81;4977161;28;20030;-65
2022/11/18 09:57:53;;;;;;;10.50;3.42;;;;;;;10.97;100.00;100146.63;4978193;28;20489;-70
2022/11/18 10:00:29;;;;;;;13.25;4.00;;;;;;;11.04;100.00;100150.66;4987490;28;20023;-69
2022/11/18 10:03:22;;;;;;;10.52;3.75;;;;;;;11.06;100.00;100151.47;4990604;28;20046;-66
2022/11/18 10:06:02;;;;;;;9.63;3.58;;;;;;;11.06;100.00;100148.81;4990417;28;20026;-71
2022/11/18 10:08:32;;;;;;;8.77;3.03;;;;;;;11.22;100.00;100158.63;4989738;28;20014;-71
2022/11/18 10:11:09;;;;;;;8.98;3.40;;;;;;;11.26;100.00;100160.22;4990511;28;20054;-71
2022/11/18 10:14:12;;;;;;;8.05;3.08;;;;;;;11.29;100.00;100165.31;4988583;28;20030;-71
2022/11/18 10:16:58;;;;;;;7.88;3.45;;;;;;;11.06;100.00;100167.28;4988641;28;20457;-66
2022/11/18 10:19:32;;;;;;;13.57;3.88;;;;;;;10.89;100.00;100173.31;4986671;28;20030;-66
2022/11/18 10:22:21;;;;;;;9.63;4.25;;;;;;;10.80;100.00;100176.38;4989248;28;20022;-71
2022/11/18 10:24:54;;;;;;;10.27;3.53;;;;;;;10.86;100.00;100174.31;4984464;28;20082;-65
2022/11/18 10:27:20;;;;;;;10.40;3.63;;;;;;;10.91;100.00;100175.88;4988556;28;20054;-70
2022/11/18 10:29:55;;;;;;;12.63;3.78;;;;;;;10.94;100.00;100178.38;4989443;28;20026;-70
2022/11/18 10:32:20;;;;;;;10.70;3.67;;;;;;;11.05;100.00;100177.91;4977367;28;20136;-69
2022/11/18 10:34:54;;;;;;;12.88;3.47;;;;;;;11.05;100.00;100183.16;4981025;28;20018;-68
2022/11/18 10:37:27;;;;;;;11.65;3.60;;;;;;;11.21;100.00;100188.56;4988740;28;20023;-73
2022/11/18 10:39:58;;;;;;;11.50;3.88;;;;;;;11.26;100.00;100186.59;4989238;28;20544;-70
2022/11/18 10:42:28;;;;;;;10.95;3.70;;;;;;;11.37;100.00;100200.09;4986813;28;20048;-70
2022/11/18 10:44:53;;;;;;;9.35;3.50;;;;;;;11.46;100.00;100195.31;4976778;28;20034;-73
2022/11/18 10:47:28;;;;;;;7.00;3.65;;;;;;;11.45;100.00;100197.13;4972272;28;20027;-65
2022/11/18 10:49:59;;;;;;;8.48;3.55;;;;;;;11.39;100.00;100200.03;4989248;28;20461;-63
2022/11/18 10:52:25;;;;;;;8.70;3.75;;;;;;;11.42;100.00;100204.31;4990917;28;20037;-68
2022/11/18 10:55:19;;;;;;;11.27;3.40;;;;;;;11.53;100.00;100203.78;4991235;28;20030;-72
2022/11/18 10:57:45;;;;;;;8.48;3.22;;;;;;;11.73;100.00;100195.75;4990843;28;20418;-72
2022/11/18 11:00:33;;;;;;;8.15;3.30;;;;;;;11.88;100.00;100204.72;4990242;28;20107;-68
2022/11/18 11:02:59;;;;;;;6.88;3.35;;;;;;;12.06;100.00;100190.66;4988331;28;20366;-71
2022/11/18 11:05:25;;;;;;;13.15;3.05;;;;;;;11.87;100.00;100202.97;4989113;28;20050;-71
2022/11/18 11:08:18;;;;;;;14.20;4.22;;;;;;;12.03;100.00;100196.09;4988942;28;20038;-72
2022/11/18 11:10:54;;;;;;;6.68;2.90;;;;;;;11.92;100.00;100197.47;4985590;28;20038;-69
2022/11/18 11:13:21;;;;;;;15.02;3.60;;;;;;;12.00;100.00;100207.66;4987972;28;20049;-66
2022/11/18 11:15:47;;;;;;;15.45;3.80;;;;;;;12.10;100.00;100208.94;4983379;28;20026;-72
2022/11/18 11:18:42;;;;;;;7.55;3.33;;;;;;;11.80;100.00;100211.31;4980543;28;20061;-70
2022/11/18 11:21:12;;;;;;;13.93;3.58;;;;;;;11.78;100.00;100219.28;4979376;28;20023;-71
2022/11/18 11:23:37;;;;;;;13.07;3.92;;;;;;;11.74;100.00;100218.56;4982547;28;20037;-65
2022/11/18 11:26:07;;;;;;;10.55;3.88;;;;;;;11.58;100.00;100213.19;4984542;28;20034;-72
2022/11/18 11:29:05;;;;;;;10.13;3.63;;;;;;;11.56;100.00;100220.31;4982570;28;20019;-67
2022/11/18 11:31:42;;;;;;;9.13;3.38;;;;;;;11.52;100.00;100224.03;4967915;28;20136;-66
2022/11/18 11:34:22;;;;;;;12.50;3.97;;;;;;;11.37;100.00;100226.50;4989065;28;20381;-68
2022/11/18 11:36:53;;;;;;;8.63;3.00;;;;;;;11.58;100.00;100234.31;4990571;28;20029;-74
2022/11/18 11:39:36;;;;;;;7.30;3.78;;;;;;;11.62;100.00;100235.03;4987901;28;20022;-70
2022/11/18 11:42:12;;;;;;;8.73;3.72;;;;;;;11.53;100.00;100230.19;4989891;28;20034;-71
2022/11/18 11:45:05;;;;;;;13.00;3.88;;;;;;;11.40;100.00;100236.03;4990153;28;20096;-69
2022/11/18 11:47:55;;;;;;;12.57;4.45;;;;;;;11.51;100.00;100232.91;4990764;28;20027;-69
2022/11/18 11:50:52;;;;;;;15.38;4.15;;;;;;;11.52;100.00;100225.81;4989456;28;20022;-69